sensor_id;sensor_type;location;lat;lon;timestamp;P1;durP1;ratioP1;P2;durP2;ratioP2
74967;SDS011;63523;51.880;12.630;2023-07-13T00:00:11;4.63;;;2.10;;
74967;SDS011;63523;51.880;12.630;2023-07-13T00:02:40;4.33;;;1.97;;
74967;SDS011;63523;51.880;12.630;2023-07-13T00:05:05;4.63;;;1.80;;
74967;SDS011;63523;51.880;12.630;2023-07-13T00:07:31;4.30;;;2.00;;
74967;SDS011;63523;51.880;12.630;2023-07-13T00:09:56;4.50;;;1.75;;
74967;SDS011;63523;51.880;12.630;2023-07-13T00:12:29;3.70;;;1.70;;
74967;SDS011;63523;51.880;12.630;2023-07-13T00:14:57;4.32;;;1.70;;
74967;SDS011;63523;51.880;12.630;2023-07-13T00:17:25;4.72;;;1.80;;
74967;SDS011;63523;51.880;12.630;2023-07-13T00:19:51;4.27;;;1.63;;
74967;SDS011;63523;51.880;12.630;2023-07-13T00:22:17;5.17;;;1.80;;
74967;SDS011;63523;51.880;12.630;2023-07-13T00:24:43;6.80;;;2.00;;
74967;SDS011;63523;51.880;12.630;2023-07-13T00:27:09;4.63;;;1.80;;
74967;SDS011;63523;51.880;12.630;2023-07-13T00:29:35;6.63;;;2.30;;
74967;SDS011;63523;51.880;12.630;2023-07-13T00:32:01;5.47;;;1.80;;
74967;SDS011;63523;51.880;12.630;2023-07-13T00:34:30;4.88;;;2.00;;
74967;SDS011;63523;51.880;12.630;2023-07-13T00:36:56;5.30;;;1.80;;
74967;SDS011;63523;51.880;12.630;2023-07-13T00:39:21;3.50;;;1.77;;
74967;SDS011;63523;51.880;12.630;2023-07-13T00:41:47;4.33;;;1.67;;
74967;SDS011;63523;51.880;12.630;2023-07-13T00:44:13;5.53;;;1.63;;
74967;SDS011;63523;51.880;12.630;2023-07-13T00:46:39;5.10;;;2.10;;
74967;SDS011;63523;51.880;12.630;2023-07-13T00:49:06;4.43;;;1.80;;
74967;SDS011;63523;51.880;12.630;2023-07-13T00:51:45;4.13;;;1.70;;
74967;SDS011;63523;51.880;12.630;2023-07-13T00:54:24;3.40;;;1.58;;
74967;SDS011;63523;51.880;12.630;2023-07-13T00:56:54;4.13;;;1.83;;
74967;SDS011;63523;51.880;12.630;2023-07-13T00:59:22;4.22;;;1.63;;
74967;SDS011;63523;51.880;12.630;2023-07-13T01:01:49;5.22;;;1.90;;
74967;SDS011;63523;51.880;12.630;2023-07-13T01:04:14;5.10;;;1.90;;
74967;SDS011;63523;51.880;12.630;2023-07-13T01:06:40;5.55;;;1.75;;
74967;SDS011;63523;51.880;12.630;2023-07-13T01:09:08;5.53;;;1.83;;
74967;SDS011;63523;51.880;12.630;2023-07-13T01:11:35;4.63;;;1.80;;
74967;SDS011;63523;51.880;12.630;2023-07-13T01:14:01;3.67;;;1.80;;
74967;SDS011;63523;51.880;12.630;2023-07-13T01:16:29;3.75;;;1.33;;
74967;SDS011;63523;51.880;12.630;2023-07-13T01:18:56;5.22;;;1.65;;
74967;SDS011;63523;51.880;12.630;2023-07-13T01:21:27;4.05;;;1.83;;
74967;SDS011;63523;51.880;12.630;2023-07-13T01:23:53;5.75;;;1.80;;
74967;SDS011;63523;51.880;12.630;2023-07-13T01:26:18;4.47;;;1.80;;
74967;SDS011;63523;51.880;12.630;2023-07-13T01:28:43;3.67;;;1.60;;
74967;SDS011;63523;51.880;12.630;2023-07-13T01:31:09;4.60;;;2.07;;
74967;SDS011;63523;51.880;12.630;2023-07-13T01:33:36;5.78;;;1.85;;
74967;SDS011;63523;51.880;12.630;2023-07-13T01:36:03;3.80;;;1.90;;
74967;SDS011;63523;51.880;12.630;2023-07-13T01:38:28;4.93;;;1.92;;
74967;SDS011;63523;51.880;12.630;2023-07-13T01:40:54;4.80;;;1.50;;
74967;SDS011;63523;51.880;12.630;2023-07-13T01:43:19;5.32;;;1.70;;
74967;SDS011;63523;51.880;12.630;2023-07-13T01:45:45;4.27;;;1.67;;
74967;SDS011;63523;51.880;12.630;2023-07-13T01:48:10;4.23;;;2.00;;
74967;SDS011;63523;51.880;12.630;2023-07-13T01:50:36;3.97;;;2.00;;
74967;SDS011;63523;51.880;12.630;2023-07-13T01:53:02;3.97;;;1.97;;
74967;SDS011;63523;51.880;12.630;2023-07-13T01:55:29;4.25;;;1.85;;
74967;SDS011;63523;51.880;12.630;2023-07-13T01:57:55;3.47;;;1.50;;
74967;SDS011;63523;51.880;12.630;2023-07-13T02:00:21;4.45;;;1.90;;
74967;SDS011;63523;51.880;12.630;2023-07-13T02:02:46;4.27;;;1.83;;
74967;SDS011;63523;51.880;12.630;2023-07-13T02:05:12;3.77;;;1.80;;
74967;SDS011;63523;51.880;12.630;2023-07-13T02:07:38;4.93;;;1.70;;
74967;SDS011;63523;51.880;12.630;2023-07-13T02:10:04;4.57;;;1.90;;
74967;SDS011;63523;51.880;12.630;2023-07-13T02:12:31;3.90;;;1.60;;
74967;SDS011;63523;51.880;12.630;2023-07-13T02:14:56;5.20;;;1.85;;
74967;SDS011;63523;51.880;12.630;2023-07-13T02:17:21;5.83;;;1.73;;
74967;SDS011;63523;51.880;12.630;2023-07-13T02:19:47;5.60;;;1.60;;
74967;SDS011;63523;51.880;12.630;2023-07-13T02:22:12;3.80;;;1.60;;
74967;SDS011;63523;51.880;12.630;2023-07-13T02:24:37;4.87;;;2.07;;
74967;SDS011;63523;51.880;12.630;2023-07-13T02:27:03;3.87;;;1.63;;
74967;SDS011;63523;51.880;12.630;2023-07-13T02:29:28;5.50;;;1.85;;
74967;SDS011;63523;51.880;12.630;2023-07-13T02:31:54;4.23;;;1.80;;
74967;SDS011;63523;51.880;12.630;2023-07-13T02:34:19;4.20;;;2.00;;
74967;SDS011;63523;51.880;12.630;2023-07-13T02:36:44;4.43;;;1.80;;
74967;SDS011;63523;51.880;12.630;2023-07-13T02:39:10;4.73;;;1.73;;
74967;SDS011;63523;51.880;12.630;2023-07-13T02:41:37;5.78;;;2.35;;
74967;SDS011;63523;51.880;12.630;2023-07-13T02:44:02;3.93;;;1.90;;
74967;SDS011;63523;51.880;12.630;2023-07-13T02:46:31;4.00;;;2.07;;
74967;SDS011;63523;51.880;12.630;2023-07-13T02:48:57;4.63;;;2.20;;
74967;SDS011;63523;51.880;12.630;2023-07-13T02:51:23;6.77;;;2.20;;
74967;SDS011;63523;51.880;12.630;2023-07-13T02:53:48;4.80;;;2.10;;
74967;SDS011;63523;51.880;12.630;2023-07-13T02:56:13;5.32;;;2.00;;
74967;SDS011;63523;51.880;12.630;2023-07-13T02:58:38;6.17;;;2.23;;
74967;SDS011;63523;51.880;12.630;2023-07-13T03:01:10;5.57;;;2.17;;
74967;SDS011;63523;51.880;12.630;2023-07-13T03:03:36;4.85;;;2.10;;
74967;SDS011;63523;51.880;12.630;2023-07-13T03:06:03;4.93;;;2.03;;
74967;SDS011;63523;51.880;12.630;2023-07-13T03:08:30;4.22;;;2.00;;
74967;SDS011;63523;51.880;12.630;2023-07-13T03:10:58;5.90;;;2.00;;
74967;SDS011;63523;51.880;12.630;2023-07-13T03:13:25;5.47;;;2.30;;
74967;SDS011;63523;51.880;12.630;2023-07-13T03:15:50;4.93;;;2.00;;
74967;SDS011;63523;51.880;12.630;2023-07-13T03:18:15;6.00;;;2.47;;
74967;SDS011;63523;51.880;12.630;2023-07-13T03:20:40;5.37;;;2.40;;
74967;SDS011;63523;51.880;12.630;2023-07-13T03:23:06;5.40;;;2.20;;
74967;SDS011;63523;51.880;12.630;2023-07-13T03:25:31;4.80;;;2.40;;
74967;SDS011;63523;51.880;12.630;2023-07-13T03:27:56;5.50;;;2.70;;
74967;SDS011;63523;51.880;12.630;2023-07-13T03:30:21;5.87;;;2.10;;
74967;SDS011;63523;51.880;12.630;2023-07-13T03:32:48;6.57;;;2.42;;
74967;SDS011;63523;51.880;12.630;2023-07-13T03:35:13;6.90;;;2.90;;
74967;SDS011;63523;51.880;12.630;2023-07-13T03:37:38;5.63;;;2.70;;
74967;SDS011;63523;51.880;12.630;2023-07-13T03:40:07;5.13;;;2.20;;
74967;SDS011;63523;51.880;12.630;2023-07-13T03:42:34;5.93;;;2.50;;
74967;SDS011;63523;51.880;12.630;2023-07-13T03:44:59;5.07;;;2.45;;
74967;SDS011;63523;51.880;12.630;2023-07-13T03:47:25;5.33;;;1.93;;
74967;SDS011;63523;51.880;12.630;2023-07-13T03:49:50;5.00;;;2.03;;
74967;SDS011;63523;51.880;12.630;2023-07-13T03:52:15;4.53;;;2.20;;
74967;SDS011;63523;51.880;12.630;2023-07-13T03:54:41;5.53;;;1.87;;
74967;SDS011;63523;51.880;12.630;2023-07-13T03:57:06;4.23;;;2.33;;
74967;SDS011;63523;51.880;12.630;2023-07-13T03:59:31;5.70;;;2.70;;
74967;SDS011;63523;51.880;12.630;2023-07-13T04:01:57;6.73;;;2.90;;
74967;SDS011;63523;51.880;12.630;2023-07-13T04:04:22;8.43;;;2.50;;
74967;SDS011;63523;51.880;12.630;2023-07-13T04:06:47;5.10;;;2.30;;
74967;SDS011;63523;51.880;12.630;2023-07-13T04:09:12;5.97;;;2.93;;
74967;SDS011;63523;51.880;12.630;2023-07-13T04:11:38;6.03;;;2.87;;
74967;SDS011;63523;51.880;12.630;2023-07-13T04:14:03;6.90;;;2.80;;
74967;SDS011;63523;51.880;12.630;2023-07-13T04:16:28;5.57;;;2.80;;
74967;SDS011;63523;51.880;12.630;2023-07-13T04:18:54;5.87;;;2.70;;
74967;SDS011;63523;51.880;12.630;2023-07-13T04:21:24;5.53;;;2.95;;
74967;SDS011;63523;51.880;12.630;2023-07-13T04:23:51;5.45;;;2.85;;
74967;SDS011;63523;51.880;12.630;2023-07-13T04:26:16;5.23;;;2.57;;
74967;SDS011;63523;51.880;12.630;2023-07-13T04:28:41;6.07;;;2.87;;
74967;SDS011;63523;51.880;12.630;2023-07-13T04:31:07;6.20;;;2.40;;
74967;SDS011;63523;51.880;12.630;2023-07-13T04:33:32;5.50;;;2.25;;
74967;SDS011;63523;51.880;12.630;2023-07-13T04:35:58;5.10;;;2.50;;
74967;SDS011;63523;51.880;12.630;2023-07-13T04:38:25;4.60;;;2.47;;
74967;SDS011;63523;51.880;12.630;2023-07-13T04:40:54;5.88;;;2.63;;
74967;SDS011;63523;51.880;12.630;2023-07-13T04:43:20;5.20;;;2.57;;
74967;SDS011;63523;51.880;12.630;2023-07-13T04:45:45;5.37;;;2.37;;
74967;SDS011;63523;51.880;12.630;2023-07-13T04:48:11;5.82;;;2.72;;
74967;SDS011;63523;51.880;12.630;2023-07-13T04:50:36;5.20;;;2.60;;
74967;SDS011;63523;51.880;12.630;2023-07-13T04:53:02;6.28;;;2.92;;
74967;SDS011;63523;51.880;12.630;2023-07-13T04:55:28;4.07;;;2.33;;
74967;SDS011;63523;51.880;12.630;2023-07-13T04:57:55;5.95;;;2.63;;
74967;SDS011;63523;51.880;12.630;2023-07-13T05:00:21;7.10;;;2.88;;
74967;SDS011;63523;51.880;12.630;2023-07-13T05:02:46;4.87;;;2.70;;
74967;SDS011;63523;51.880;12.630;2023-07-13T05:05:12;5.63;;;2.63;;
74967;SDS011;63523;51.880;12.630;2023-07-13T05:07:38;6.43;;;2.60;;
74967;SDS011;63523;51.880;12.630;2023-07-13T05:10:03;5.33;;;2.37;;
74967;SDS011;63523;51.880;12.630;2023-07-13T05:12:29;4.70;;;2.20;;
74967;SDS011;63523;51.880;12.630;2023-07-13T05:14:55;5.70;;;2.28;;
74967;SDS011;63523;51.880;12.630;2023-07-13T05:17:20;6.57;;;2.13;;
74967;SDS011;63523;51.880;12.630;2023-07-13T05:19:46;4.43;;;2.20;;
74967;SDS011;63523;51.880;12.630;2023-07-13T05:22:12;5.73;;;2.27;;
74967;SDS011;63523;51.880;12.630;2023-07-13T05:24:37;4.83;;;2.40;;
74967;SDS011;63523;51.880;12.630;2023-07-13T05:27:03;9.37;;;4.07;;
74967;SDS011;63523;51.880;12.630;2023-07-13T05:29:28;9.37;;;4.20;;
74967;SDS011;63523;51.880;12.630;2023-07-13T05:31:53;8.73;;;3.37;;
74967;SDS011;63523;51.880;12.630;2023-07-13T05:34:19;7.93;;;3.35;;
74967;SDS011;63523;51.880;12.630;2023-07-13T05:36:44;9.63;;;3.00;;
74967;SDS011;63523;51.880;12.630;2023-07-13T05:39:09;7.67;;;3.40;;
74967;SDS011;63523;51.880;12.630;2023-07-13T05:41:36;8.02;;;3.35;;
74967;SDS011;63523;51.880;12.630;2023-07-13T05:44:01;8.77;;;4.67;;
74967;SDS011;63523;51.880;12.630;2023-07-13T05:46:27;8.23;;;3.83;;
74967;SDS011;63523;51.880;12.630;2023-07-13T05:48:52;7.37;;;3.73;;
74967;SDS011;63523;51.880;12.630;2023-07-13T05:51:18;5.57;;;2.93;;
74967;SDS011;63523;51.880;12.630;2023-07-13T05:53:43;8.07;;;2.20;;
74967;SDS011;63523;51.880;12.630;2023-07-13T05:56:08;4.80;;;2.03;;
74967;SDS011;63523;51.880;12.630;2023-07-13T05:58:34;5.23;;;2.07;;
74967;SDS011;63523;51.880;12.630;2023-07-13T06:01:04;5.80;;;2.10;;
74967;SDS011;63523;51.880;12.630;2023-07-13T06:03:31;7.45;;;2.70;;
74967;SDS011;63523;51.880;12.630;2023-07-13T06:05:57;6.57;;;2.00;;
74967;SDS011;63523;51.880;12.630;2023-07-13T06:08:22;5.07;;;2.00;;
74967;SDS011;63523;51.880;12.630;2023-07-13T06:10:47;6.80;;;2.28;;
74967;SDS011;63523;51.880;12.630;2023-07-13T06:13:13;6.40;;;2.03;;
74967;SDS011;63523;51.880;12.630;2023-07-13T06:15:38;7.17;;;1.67;;
74967;SDS011;63523;51.880;12.630;2023-07-13T06:18:03;4.40;;;1.40;;
74967;SDS011;63523;51.880;12.630;2023-07-13T06:20:29;4.73;;;1.87;;
74967;SDS011;63523;51.880;12.630;2023-07-13T06:22:54;4.20;;;1.67;;
74967;SDS011;63523;51.880;12.630;2023-07-13T06:25:19;4.07;;;1.40;;
74967;SDS011;63523;51.880;12.630;2023-07-13T06:27:45;6.03;;;1.60;;
74967;SDS011;63523;51.880;12.630;2023-07-13T06:30:10;4.03;;;1.37;;
74967;SDS011;63523;51.880;12.630;2023-07-13T06:32:36;4.40;;;1.47;;
74967;SDS011;63523;51.880;12.630;2023-07-13T06:35:01;4.33;;;1.10;;
74967;SDS011;63523;51.880;12.630;2023-07-13T06:37:26;3.83;;;1.42;;
74967;SDS011;63523;51.880;12.630;2023-07-13T06:39:52;5.00;;;1.43;;
74967;SDS011;63523;51.880;12.630;2023-07-13T06:42:17;4.90;;;1.40;;
74967;SDS011;63523;51.880;12.630;2023-07-13T06:44:42;4.20;;;1.40;;
74967;SDS011;63523;51.880;12.630;2023-07-13T06:47:08;4.60;;;1.50;;
74967;SDS011;63523;51.880;12.630;2023-07-13T06:49:33;5.17;;;1.70;;
74967;SDS011;63523;51.880;12.630;2023-07-13T06:51:58;4.77;;;1.60;;
74967;SDS011;63523;51.880;12.630;2023-07-13T06:54:23;4.60;;;1.63;;
74967;SDS011;63523;51.880;12.630;2023-07-13T06:56:49;4.33;;;1.53;;
74967;SDS011;63523;51.880;12.630;2023-07-13T06:59:14;6.03;;;1.50;;
74967;SDS011;63523;51.880;12.630;2023-07-13T07:01:39;5.33;;;1.50;;
74967;SDS011;63523;51.880;12.630;2023-07-13T07:04:04;4.90;;;1.47;;
74967;SDS011;63523;51.880;12.630;2023-07-13T07:06:30;4.27;;;1.63;;
74967;SDS011;63523;51.880;12.630;2023-07-13T07:08:55;4.43;;;1.47;;
74967;SDS011;63523;51.880;12.630;2023-07-13T07:11:22;4.73;;;1.30;;
74967;SDS011;63523;51.880;12.630;2023-07-13T07:13:49;3.90;;;1.13;;
74967;SDS011;63523;51.880;12.630;2023-07-13T07:16:18;3.88;;;1.50;;
74967;SDS011;63523;51.880;12.630;2023-07-13T07:18:44;4.07;;;1.30;;
74967;SDS011;63523;51.880;12.630;2023-07-13T07:21:10;6.35;;;1.50;;
74967;SDS011;63523;51.880;12.630;2023-07-13T07:23:36;4.70;;;1.67;;
74967;SDS011;63523;51.880;12.630;2023-07-13T07:26:01;4.32;;;1.42;;
74967;SDS011;63523;51.880;12.630;2023-07-13T07:28:27;4.77;;;1.23;;
74967;SDS011;63523;51.880;12.630;2023-07-13T07:30:54;6.15;;;1.30;;
74967;SDS011;63523;51.880;12.630;2023-07-13T07:33:21;6.07;;;1.40;;
74967;SDS011;63523;51.880;12.630;2023-07-13T07:35:46;4.70;;;1.60;;
74967;SDS011;63523;51.880;12.630;2023-07-13T07:38:11;4.90;;;1.33;;
74967;SDS011;63523;51.880;12.630;2023-07-13T07:40:37;3.87;;;1.60;;
74967;SDS011;63523;51.880;12.630;2023-07-13T07:43:03;6.47;;;1.50;;
74967;SDS011;63523;51.880;12.630;2023-07-13T07:45:28;4.40;;;1.40;;
74967;SDS011;63523;51.880;12.630;2023-07-13T07:47:54;4.37;;;1.30;;
74967;SDS011;63523;51.880;12.630;2023-07-13T07:50:23;4.35;;;1.30;;
74967;SDS011;63523;51.880;12.630;2023-07-13T07:52:49;4.53;;;1.60;;
74967;SDS011;63523;51.880;12.630;2023-07-13T07:55:15;3.57;;;1.17;;
74967;SDS011;63523;51.880;12.630;2023-07-13T07:57:40;6.73;;;1.70;;
74967;SDS011;63523;51.880;12.630;2023-07-13T08:00:05;4.87;;;1.30;;
74967;SDS011;63523;51.880;12.630;2023-07-13T08:02:31;4.43;;;1.30;;
74967;SDS011;63523;51.880;12.630;2023-07-13T08:04:56;3.33;;;1.10;;
74967;SDS011;63523;51.880;12.630;2023-07-13T08:07:22;5.53;;;1.30;;
74967;SDS011;63523;51.880;12.630;2023-07-13T08:09:47;4.90;;;1.40;;
74967;SDS011;63523;51.880;12.630;2023-07-13T08:12:12;4.87;;;1.17;;
74967;SDS011;63523;51.880;12.630;2023-07-13T08:14:37;4.20;;;1.10;;
74967;SDS011;63523;51.880;12.630;2023-07-13T08:17:03;4.90;;;1.20;;
74967;SDS011;63523;51.880;12.630;2023-07-13T08:19:29;5.30;;;1.20;;
74967;SDS011;63523;51.880;12.630;2023-07-13T08:21:54;4.50;;;1.48;;
74967;SDS011;63523;51.880;12.630;2023-07-13T08:24:21;3.33;;;1.20;;
74967;SDS011;63523;51.880;12.630;2023-07-13T08:26:48;4.07;;;1.23;;
74967;SDS011;63523;51.880;12.630;2023-07-13T08:29:13;3.87;;;1.00;;
74967;SDS011;63523;51.880;12.630;2023-07-13T08:31:38;4.87;;;1.57;;
74967;SDS011;63523;51.880;12.630;2023-07-13T08:34:04;4.87;;;1.47;;
74967;SDS011;63523;51.880;12.630;2023-07-13T08:36:29;3.60;;;1.20;;
74967;SDS011;63523;51.880;12.630;2023-07-13T08:38:55;5.63;;;1.60;;
74967;SDS011;63523;51.880;12.630;2023-07-13T08:41:20;5.10;;;1.50;;
74967;SDS011;63523;51.880;12.630;2023-07-13T08:43:50;5.10;;;1.45;;
74967;SDS011;63523;51.880;12.630;2023-07-13T08:48:56;5.90;;;1.60;;
74967;SDS011;63523;51.880;12.630;2023-07-13T08:51:26;5.63;;;1.30;;
74967;SDS011;63523;51.880;12.630;2023-07-13T08:54:01;4.25;;;1.30;;
74967;SDS011;63523;51.880;12.630;2023-07-13T08:56:37;3.80;;;1.48;;
74967;SDS011;63523;51.880;12.630;2023-07-13T08:59:09;5.50;;;1.30;;
74967;SDS011;63523;51.880;12.630;2023-07-13T09:04:37;4.80;;;1.38;;
74967;SDS011;63523;51.880;12.630;2023-07-13T09:07:18;3.30;;;1.20;;
74967;SDS011;63523;51.880;12.630;2023-07-13T09:09:52;3.95;;;1.20;;
74967;SDS011;63523;51.880;12.630;2023-07-13T09:17:57;4.32;;;1.48;;
74967;SDS011;63523;51.880;12.630;2023-07-13T09:20:35;3.60;;;1.13;;
74967;SDS011;63523;51.880;12.630;2023-07-13T09:23:05;3.35;;;1.38;;
74967;SDS011;63523;51.880;12.630;2023-07-13T09:25:35;3.80;;;1.30;;
74967;SDS011;63523;51.880;12.630;2023-07-13T09:28:05;6.25;;;1.42;;
74967;SDS011;63523;51.880;12.630;2023-07-13T09:33:42;6.17;;;1.53;;
74967;SDS011;63523;51.880;12.630;2023-07-13T09:39:02;5.50;;;1.60;;
74967;SDS011;63523;51.880;12.630;2023-07-13T09:49:47;5.25;;;1.60;;
74967;SDS011;63523;51.880;12.630;2023-07-13T09:52:14;6.50;;;1.40;;
74967;SDS011;63523;51.880;12.630;2023-07-13T09:54:43;6.63;;;1.90;;
74967;SDS011;63523;51.880;12.630;2023-07-13T09:57:17;6.75;;;2.50;;
74967;SDS011;63523;51.880;12.630;2023-07-13T09:59:48;6.65;;;2.40;;
74967;SDS011;63523;51.880;12.630;2023-07-13T10:02:31;7.47;;;2.08;;
74967;SDS011;63523;51.880;12.630;2023-07-13T10:07:28;4.65;;;1.90;;
74967;SDS011;63523;51.880;12.630;2023-07-13T10:09:55;4.60;;;1.63;;
74967;SDS011;63523;51.880;12.630;2023-07-13T10:12:22;5.35;;;1.90;;
74967;SDS011;63523;51.880;12.630;2023-07-13T10:14:53;7.43;;;2.50;;
74967;SDS011;63523;51.880;12.630;2023-07-13T10:17:25;6.83;;;2.40;;
74967;SDS011;63523;51.880;12.630;2023-07-13T10:19:55;5.85;;;2.05;;
74967;SDS011;63523;51.880;12.630;2023-07-13T10:24:54;6.75;;;2.00;;
74967;SDS011;63523;51.880;12.630;2023-07-13T10:27:27;6.27;;;2.07;;
74967;SDS011;63523;51.880;12.630;2023-07-13T10:32:42;6.78;;;1.98;;
74967;SDS011;63523;51.880;12.630;2023-07-13T10:35:10;4.22;;;1.35;;
74967;SDS011;63523;51.880;12.630;2023-07-13T10:37:54;4.27;;;1.60;;
74967;SDS011;63523;51.880;12.630;2023-07-13T10:40:31;4.65;;;1.20;;
74967;SDS011;63523;51.880;12.630;2023-07-13T10:43:01;4.38;;;1.60;;
74967;SDS011;63523;51.880;12.630;2023-07-13T10:45:29;8.18;;;1.90;;
74967;SDS011;63523;51.880;12.630;2023-07-13T10:47:57;5.93;;;1.83;;
74967;SDS011;63523;51.880;12.630;2023-07-13T10:50:23;5.80;;;1.70;;
74967;SDS011;63523;51.880;12.630;2023-07-13T10:52:53;6.32;;;2.10;;
74967;SDS011;63523;51.880;12.630;2023-07-13T10:57:59;6.93;;;2.33;;
74967;SDS011;63523;51.880;12.630;2023-07-13T11:00:25;4.97;;;1.88;;
74967;SDS011;63523;51.880;12.630;2023-07-13T11:03:00;4.40;;;1.50;;
74967;SDS011;63523;51.880;12.630;2023-07-13T11:05:29;5.35;;;2.08;;
74967;SDS011;63523;51.880;12.630;2023-07-13T11:08:16;5.50;;;1.80;;
74967;SDS011;63523;51.880;12.630;2023-07-13T11:10:50;5.70;;;1.90;;
74967;SDS011;63523;51.880;12.630;2023-07-13T11:18:51;4.93;;;1.40;;
74967;SDS011;63523;51.880;12.630;2023-07-13T11:21:33;5.07;;;1.50;;
74967;SDS011;63523;51.880;12.630;2023-07-13T11:24:13;4.63;;;1.30;;
74967;SDS011;63523;51.880;12.630;2023-07-13T11:26:44;4.57;;;1.90;;
74967;SDS011;63523;51.880;12.630;2023-07-13T11:31:42;4.63;;;1.50;;
74967;SDS011;63523;51.880;12.630;2023-07-13T11:34:23;3.80;;;1.40;;
74967;SDS011;63523;51.880;12.630;2023-07-13T11:36:53;3.88;;;1.52;;
74967;SDS011;63523;51.880;12.630;2023-07-13T11:39:21;3.95;;;1.60;;
74967;SDS011;63523;51.880;12.630;2023-07-13T11:41:56;5.13;;;1.63;;
74967;SDS011;63523;51.880;12.630;2023-07-13T11:44:25;4.25;;;1.40;;
74967;SDS011;63523;51.880;12.630;2023-07-13T11:46:53;24.13;;;3.13;;
74967;SDS011;63523;51.880;12.630;2023-07-13T11:49:20;4.53;;;1.70;;
74967;SDS011;63523;51.880;12.630;2023-07-13T11:51:47;7.80;;;1.60;;
74967;SDS011;63523;51.880;12.630;2023-07-13T11:54:34;3.53;;;1.20;;
74967;SDS011;63523;51.880;12.630;2023-07-13T11:59:53;5.65;;;1.52;;
74967;SDS011;63523;51.880;12.630;2023-07-13T12:02:33;4.22;;;1.30;;
74967;SDS011;63523;51.880;12.630;2023-07-13T12:07:35;5.23;;;1.60;;
74967;SDS011;63523;51.880;12.630;2023-07-13T12:10:13;5.75;;;1.67;;
74967;SDS011;63523;51.880;12.630;2023-07-13T12:12:52;4.43;;;1.60;;
74967;SDS011;63523;51.880;12.630;2023-07-13T12:15:18;4.72;;;1.30;;
74967;SDS011;63523;51.880;12.630;2023-07-13T12:17:43;6.47;;;1.40;;
74967;SDS011;63523;51.880;12.630;2023-07-13T12:20:20;3.78;;;0.90;;
74967;SDS011;63523;51.880;12.630;2023-07-13T12:22:53;6.27;;;1.13;;
74967;SDS011;63523;51.880;12.630;2023-07-13T12:25:19;6.47;;;1.30;;
74967;SDS011;63523;51.880;12.630;2023-07-13T12:27:48;4.43;;;1.00;;
74967;SDS011;63523;51.880;12.630;2023-07-13T12:32:57;5.57;;;0.70;;
74967;SDS011;63523;51.880;12.630;2023-07-13T12:35:38;7.07;;;0.93;;
74967;SDS011;63523;51.880;12.630;2023-07-13T12:38:11;4.93;;;0.90;;
74967;SDS011;63523;51.880;12.630;2023-07-13T12:40:37;5.90;;;1.40;;
74967;SDS011;63523;51.880;12.630;2023-07-13T12:43:05;4.68;;;0.93;;
74967;SDS011;63523;51.880;12.630;2023-07-13T12:45:38;3.38;;;0.90;;
74967;SDS011;63523;51.880;12.630;2023-07-13T12:48:05;5.53;;;1.23;;
74967;SDS011;63523;51.880;12.630;2023-07-13T12:50:40;2.97;;;0.98;;
74967;SDS011;63523;51.880;12.630;2023-07-13T12:53:12;3.70;;;0.80;;
74967;SDS011;63523;51.880;12.630;2023-07-13T12:55:40;4.57;;;0.80;;
74967;SDS011;63523;51.880;12.630;2023-07-13T12:58:09;3.77;;;1.03;;
74967;SDS011;63523;51.880;12.630;2023-07-13T13:00:47;3.30;;;1.00;;
74967;SDS011;63523;51.880;12.630;2023-07-13T13:03:38;4.82;;;1.13;;
74967;SDS011;63523;51.880;12.630;2023-07-13T13:08:43;4.78;;;1.10;;
74967;SDS011;63523;51.880;12.630;2023-07-13T13:11:08;3.77;;;1.00;;
74967;SDS011;63523;51.880;12.630;2023-07-13T13:13:34;6.20;;;1.57;;
74967;SDS011;63523;51.880;12.630;2023-07-13T13:18:42;2.90;;;0.85;;
74967;SDS011;63523;51.880;12.630;2023-07-13T13:21:08;3.90;;;1.40;;
74967;SDS011;63523;51.880;12.630;2023-07-13T13:23:34;3.75;;;1.30;;
74967;SDS011;63523;51.880;12.630;2023-07-13T13:25:59;4.90;;;1.50;;
74967;SDS011;63523;51.880;12.630;2023-07-13T13:28:25;4.10;;;1.10;;
74967;SDS011;63523;51.880;12.630;2023-07-13T13:30:51;5.50;;;1.25;;
74967;SDS011;63523;51.880;12.630;2023-07-13T13:33:17;4.33;;;1.00;;
74967;SDS011;63523;51.880;12.630;2023-07-13T13:35:43;5.22;;;1.10;;
74967;SDS011;63523;51.880;12.630;2023-07-13T13:38:13;4.80;;;1.05;;
74967;SDS011;63523;51.880;12.630;2023-07-13T13:40:40;5.80;;;0.97;;
74967;SDS011;63523;51.880;12.630;2023-07-13T13:43:23;3.85;;;1.30;;
74967;SDS011;63523;51.880;12.630;2023-07-13T13:45:54;5.18;;;1.20;;
74967;SDS011;63523;51.880;12.630;2023-07-13T13:48:25;3.13;;;0.60;;
74967;SDS011;63523;51.880;12.630;2023-07-13T13:50:59;4.05;;;0.98;;
74967;SDS011;63523;51.880;12.630;2023-07-13T13:53:26;3.50;;;0.70;;
74967;SDS011;63523;51.880;12.630;2023-07-13T13:55:52;5.38;;;0.85;;
74967;SDS011;63523;51.880;12.630;2023-07-13T13:58:18;3.28;;;0.60;;
74967;SDS011;63523;51.880;12.630;2023-07-13T14:00:44;2.90;;;0.60;;
74967;SDS011;63523;51.880;12.630;2023-07-13T14:03:19;4.03;;;1.00;;
74967;SDS011;63523;51.880;12.630;2023-07-13T14:05:45;4.15;;;0.90;;
74967;SDS011;63523;51.880;12.630;2023-07-13T14:08:15;3.42;;;0.70;;
74967;SDS011;63523;51.880;12.630;2023-07-13T14:10:42;3.55;;;0.73;;
74967;SDS011;63523;51.880;12.630;2023-07-13T14:13:28;4.40;;;0.63;;
74967;SDS011;63523;51.880;12.630;2023-07-13T14:15:58;5.65;;;1.13;;
74967;SDS011;63523;51.880;12.630;2023-07-13T14:18:24;5.97;;;1.20;;
74967;SDS011;63523;51.880;12.630;2023-07-13T14:20:50;3.10;;;0.80;;
74967;SDS011;63523;51.880;12.630;2023-07-13T14:23:17;3.72;;;0.70;;
74967;SDS011;63523;51.880;12.630;2023-07-13T14:25:43;4.18;;;0.60;;
74967;SDS011;63523;51.880;12.630;2023-07-13T14:28:20;2.42;;;0.40;;
74967;SDS011;63523;51.880;12.630;2023-07-13T14:30:48;3.25;;;0.70;;
74967;SDS011;63523;51.880;12.630;2023-07-13T14:33:14;4.37;;;0.90;;
74967;SDS011;63523;51.880;12.630;2023-07-13T14:35:40;4.35;;;0.90;;
74967;SDS011;63523;51.880;12.630;2023-07-13T14:38:08;3.45;;;0.95;;
74967;SDS011;63523;51.880;12.630;2023-07-13T14:40:36;4.43;;;0.70;;
74967;SDS011;63523;51.880;12.630;2023-07-13T14:43:02;3.72;;;0.82;;
74967;SDS011;63523;51.880;12.630;2023-07-13T14:45:28;2.90;;;0.60;;
74967;SDS011;63523;51.880;12.630;2023-07-13T14:47:56;4.70;;;1.08;;
74967;SDS011;63523;51.880;12.630;2023-07-13T14:50:28;2.50;;;0.70;;
74967;SDS011;63523;51.880;12.630;2023-07-13T14:52:56;2.95;;;0.75;;
74967;SDS011;63523;51.880;12.630;2023-07-13T14:55:21;3.97;;;0.73;;
74967;SDS011;63523;51.880;12.630;2023-07-13T14:57:48;3.50;;;0.90;;
74967;SDS011;63523;51.880;12.630;2023-07-13T15:00:15;2.50;;;0.65;;
74967;SDS011;63523;51.880;12.630;2023-07-13T15:02:49;2.58;;;0.70;;
74967;SDS011;63523;51.880;12.630;2023-07-13T15:05:18;3.13;;;0.50;;
74967;SDS011;63523;51.880;12.630;2023-07-13T15:07:45;4.38;;;0.73;;
74967;SDS011;63523;51.880;12.630;2023-07-13T15:10:18;5.10;;;0.82;;
74967;SDS011;63523;51.880;12.630;2023-07-13T15:12:45;2.30;;;0.77;;
74967;SDS011;63523;51.880;12.630;2023-07-13T15:15:11;4.72;;;0.60;;
74967;SDS011;63523;51.880;12.630;2023-07-13T15:17:40;2.80;;;0.70;;
74967;SDS011;63523;51.880;12.630;2023-07-13T15:22:50;3.33;;;0.80;;
74967;SDS011;63523;51.880;12.630;2023-07-13T15:25:21;3.40;;;0.60;;
74967;SDS011;63523;51.880;12.630;2023-07-13T15:27:49;3.33;;;0.60;;
74967;SDS011;63523;51.880;12.630;2023-07-13T15:30:15;3.75;;;0.77;;
74967;SDS011;63523;51.880;12.630;2023-07-13T15:32:42;3.53;;;0.52;;
74967;SDS011;63523;51.880;12.630;2023-07-13T15:35:21;2.65;;;0.70;;